sensor_id;sensor_type;location;lat;lon;timestamp;P1;durP1;ratioP1;P2;durP2;ratioP2
2622;SDS011;1321;48.690;9.022;2024-03-08T00:00:32;20.20;;;14.83;;
2622;SDS011;1321;48.690;9.022;2024-03-08T00:03:02;17.90;;;14.10;;
2622;SDS011;1321;48.690;9.022;2024-03-08T00:05:31;19.10;;;14.57;;
2622;SDS011;1321;48.690;9.022;2024-03-08T00:07:59;22.50;;;16.03;;
2622;SDS011;1321;48.690;9.022;2024-03-08T00:10:28;20.30;;;15.77;;
2622;SDS011;1321;48.690;9.022;2024-03-08T00:12:56;20.53;;;15.43;;
2622;SDS011;1321;48.690;9.022;2024-03-08T00:15:25;21.67;;;16.03;;
2622;SDS011;1321;48.690;9.022;2024-03-08T00:17:56;20.00;;;14.50;;
2622;SDS011;1321;48.690;9.022;2024-03-08T00:20:25;21.10;;;15.53;;
2622;SDS011;1321;48.690;9.022;2024-03-08T00:22:54;17.10;;;14.53;;
2622;SDS011;1321;48.690;9.022;2024-03-08T00:25:24;21.77;;;14.40;;
2622;SDS011;1321;48.690;9.022;2024-03-08T00:27:52;25.30;;;17.10;;
2622;SDS011;1321;48.690;9.022;2024-03-08T00:30:22;19.47;;;14.57;;
2622;SDS011;1321;48.690;9.022;2024-03-08T00:32:51;18.53;;;14.73;;
2622;SDS011;1321;48.690;9.022;2024-03-08T00:35:20;20.20;;;15.00;;
2622;SDS011;1321;48.690;9.022;2024-03-08T00:37:50;18.60;;;15.50;;
2622;SDS011;1321;48.690;9.022;2024-03-08T00:40:17;16.90;;;13.40;;
2622;SDS011;1321;48.690;9.022;2024-03-08T00:42:46;19.73;;;16.00;;
2622;SDS011;1321;48.690;9.022;2024-03-08T00:45:14;17.60;;;13.13;;
2622;SDS011;1321;48.690;9.022;2024-03-08T00:47:42;18.93;;;14.40;;
2622;SDS011;1321;48.690;9.022;2024-03-08T00:50:11;23.00;;;15.47;;
2622;SDS011;1321;48.690;9.022;2024-03-08T00:52:40;20.93;;;15.10;;
2622;SDS011;1321;48.690;9.022;2024-03-08T00:55:09;20.00;;;13.50;;
2622;SDS011;1321;48.690;9.022;2024-03-08T00:57:40;19.77;;;15.13;;
2622;SDS011;1321;48.690;9.022;2024-03-08T01:00:09;23.70;;;15.63;;
2622;SDS011;1321;48.690;9.022;2024-03-08T01:02:39;18.70;;;13.40;;
2622;SDS011;1321;48.690;9.022;2024-03-08T01:05:08;18.50;;;14.37;;
2622;SDS011;1321;48.690;9.022;2024-03-08T01:07:36;18.07;;;14.00;;
2622;SDS011;1321;48.690;9.022;2024-03-08T01:10:04;20.67;;;15.50;;
2622;SDS011;1321;48.690;9.022;2024-03-08T01:12:37;18.73;;;14.20;;
2622;SDS011;1321;48.690;9.022;2024-03-08T01:15:06;17.60;;;13.47;;
2622;SDS011;1321;48.690;9.022;2024-03-08T01:17:35;17.27;;;13.70;;
2622;SDS011;1321;48.690;9.022;2024-03-08T01:20:04;17.00;;;15.20;;
2622;SDS011;1321;48.690;9.022;2024-03-08T01:22:33;16.07;;;13.37;;
2622;SDS011;1321;48.690;9.022;2024-03-08T01:25:01;18.17;;;13.53;;
2622;SDS011;1321;48.690;9.022;2024-03-08T01:27:31;20.90;;;14.40;;
2622;SDS011;1321;48.690;9.022;2024-03-08T01:30:02;19.33;;;12.73;;
2622;SDS011;1321;48.690;9.022;2024-03-08T01:32:31;20.03;;;14.90;;
2622;SDS011;1321;48.690;9.022;2024-03-08T01:35:00;24.43;;;15.27;;
2622;SDS011;1321;48.690;9.022;2024-03-08T01:37:29;17.90;;;13.87;;
2622;SDS011;1321;48.690;9.022;2024-03-08T01:39:58;18.63;;;13.67;;
2622;SDS011;1321;48.690;9.022;2024-03-08T01:42:26;22.83;;;15.70;;
2622;SDS011;1321;48.690;9.022;2024-03-08T01:44:55;19.50;;;15.13;;
2622;SDS011;1321;48.690;9.022;2024-03-08T01:47:25;20.77;;;14.40;;
2622;SDS011;1321;48.690;9.022;2024-03-08T01:49:53;17.43;;;14.17;;
2622;SDS011;1321;48.690;9.022;2024-03-08T01:52:21;17.33;;;13.77;;
2622;SDS011;1321;48.690;9.022;2024-03-08T01:54:51;19.13;;;14.20;;
2622;SDS011;1321;48.690;9.022;2024-03-08T01:57:20;21.80;;;14.73;;
2622;SDS011;1321;48.690;9.022;2024-03-08T01:59:49;19.93;;;13.93;;
2622;SDS011;1321;48.690;9.022;2024-03-08T02:02:21;20.67;;;14.60;;
2622;SDS011;1321;48.690;9.022;2024-03-08T02:04:51;20.73;;;14.70;;
2622;SDS011;1321;48.690;9.022;2024-03-08T02:07:19;20.00;;;14.87;;
2622;SDS011;1321;48.690;9.022;2024-03-08T02:09:49;19.93;;;15.80;;
2622;SDS011;1321;48.690;9.022;2024-03-08T02:12:18;17.57;;;13.37;;
2622;SDS011;1321;48.690;9.022;2024-03-08T02:14:48;24.10;;;14.83;;
2622;SDS011;1321;48.690;9.022;2024-03-08T02:17:16;20.00;;;14.67;;
2622;SDS011;1321;48.690;9.022;2024-03-08T02:19:44;17.73;;;13.60;;
2622;SDS011;1321;48.690;9.022;2024-03-08T02:22:14;19.77;;;13.30;;
2622;SDS011;1321;48.690;9.022;2024-03-08T02:24:43;20.80;;;13.50;;
2622;SDS011;1321;48.690;9.022;2024-03-08T02:27:12;18.77;;;15.60;;
2622;SDS011;1321;48.690;9.022;2024-03-08T02:29:40;16.40;;;14.33;;
2622;SDS011;1321;48.690;9.022;2024-03-08T02:32:12;16.93;;;14.20;;
2622;SDS011;1321;48.690;9.022;2024-03-08T02:34:40;16.70;;;13.97;;
2622;SDS011;1321;48.690;9.022;2024-03-08T02:37:08;18.37;;;14.73;;
2622;SDS011;1321;48.690;9.022;2024-03-08T02:39:37;17.53;;;14.40;;
2622;SDS011;1321;48.690;9.022;2024-03-08T02:42:06;20.67;;;13.73;;
2622;SDS011;1321;48.690;9.022;2024-03-08T02:44:34;16.20;;;13.05;;
2622;SDS011;1321;48.690;9.022;2024-03-08T02:47:03;17.27;;;12.97;;
2622;SDS011;1321;48.690;9.022;2024-03-08T02:49:32;18.23;;;13.57;;
2622;SDS011;1321;48.690;9.022;2024-03-08T02:52:00;18.67;;;14.07;;
2622;SDS011;1321;48.690;9.022;2024-03-08T02:54:28;19.10;;;13.60;;
2622;SDS011;1321;48.690;9.022;2024-03-08T02:56:58;17.40;;;13.47;;
2622;SDS011;1321;48.690;9.022;2024-03-08T02:59:26;16.23;;;12.53;;
2622;SDS011;1321;48.690;9.022;2024-03-08T03:01:55;18.13;;;13.40;;
2622;SDS011;1321;48.690;9.022;2024-03-08T03:04:23;19.43;;;13.53;;
2622;SDS011;1321;48.690;9.022;2024-03-08T03:06:52;19.30;;;13.07;;
2622;SDS011;1321;48.690;9.022;2024-03-08T03:09:21;14.80;;;13.20;;
2622;SDS011;1321;48.690;9.022;2024-03-08T03:11:54;16.60;;;13.13;;
2622;SDS011;1321;48.690;9.022;2024-03-08T03:14:23;18.20;;;12.23;;
2622;SDS011;1321;48.690;9.022;2024-03-08T03:16:53;16.30;;;12.13;;
2622;SDS011;1321;48.690;9.022;2024-03-08T03:19:22;13.30;;;11.67;;
2622;SDS011;1321;48.690;9.022;2024-03-08T03:21:50;14.70;;;13.00;;
2622;SDS011;1321;48.690;9.022;2024-03-08T03:24:19;19.20;;;14.00;;
2622;SDS011;1321;48.690;9.022;2024-03-08T03:26:47;16.90;;;12.30;;
2622;SDS011;1321;48.690;9.022;2024-03-08T03:29:16;19.60;;;13.13;;
2622;SDS011;1321;48.690;9.022;2024-03-08T03:31:46;16.77;;;12.20;;
2622;SDS011;1321;48.690;9.022;2024-03-08T03:34:14;14.17;;;11.17;;
2622;SDS011;1321;48.690;9.022;2024-03-08T03:36:42;18.80;;;12.83;;
2622;SDS011;1321;48.690;9.022;2024-03-08T03:39:13;16.10;;;12.10;;
2622;SDS011;1321;48.690;9.022;2024-03-08T03:41:43;16.40;;;12.33;;
2622;SDS011;1321;48.690;9.022;2024-03-08T03:44:13;15.60;;;11.90;;
2622;SDS011;1321;48.690;9.022;2024-03-08T03:46:41;17.70;;;13.00;;
2622;SDS011;1321;48.690;9.022;2024-03-08T03:49:13;18.07;;;12.80;;
2622;SDS011;1321;48.690;9.022;2024-03-08T03:51:41;19.53;;;12.37;;
2622;SDS011;1321;48.690;9.022;2024-03-08T03:54:11;17.52;;;12.68;;
2622;SDS011;1321;48.690;9.022;2024-03-08T03:56:40;16.37;;;12.90;;
2622;SDS011;1321;48.690;9.022;2024-03-08T03:59:08;17.77;;;10.93;;
2622;SDS011;1321;48.690;9.022;2024-03-08T04:01:36;14.50;;;11.90;;
2622;SDS011;1321;48.690;9.022;2024-03-08T04:04:09;14.57;;;11.57;;
2622;SDS011;1321;48.690;9.022;2024-03-08T04:06:40;16.80;;;12.03;;
2622;SDS011;1321;48.690;9.022;2024-03-08T04:09:08;18.63;;;13.00;;
2622;SDS011;1321;48.690;9.022;2024-03-08T04:11:37;16.03;;;12.80;;
2622;SDS011;1321;48.690;9.022;2024-03-08T04:14:06;17.03;;;12.80;;
2622;SDS011;1321;48.690;9.022;2024-03-08T04:16:34;19.10;;;13.33;;
2622;SDS011;1321;48.690;9.022;2024-03-08T04:19:02;18.10;;;12.20;;
2622;SDS011;1321;48.690;9.022;2024-03-08T04:21:31;17.50;;;13.37;;
2622;SDS011;1321;48.690;9.022;2024-03-08T04:24:00;16.30;;;13.33;;
2622;SDS011;1321;48.690;9.022;2024-03-08T04:26:29;15.90;;;12.57;;
2622;SDS011;1321;48.690;9.022;2024-03-08T04:28:57;15.20;;;12.00;;
2622;SDS011;1321;48.690;9.022;2024-03-08T04:31:25;19.30;;;13.10;;
2622;SDS011;1321;48.690;9.022;2024-03-08T04:33:54;17.27;;;13.07;;
2622;SDS011;1321;48.690;9.022;2024-03-08T04:36:22;16.77;;;12.95;;
2622;SDS011;1321;48.690;9.022;2024-03-08T04:38:51;18.13;;;12.93;;
2622;SDS011;1321;48.690;9.022;2024-03-08T04:41:21;16.83;;;13.40;;
2622;SDS011;1321;48.690;9.022;2024-03-08T04:43:49;16.77;;;12.33;;
2622;SDS011;1321;48.690;9.022;2024-03-08T04:46:18;20.23;;;13.17;;
2622;SDS011;1321;48.690;9.022;2024-03-08T04:48:46;19.43;;;13.30;;
2622;SDS011;1321;48.690;9.022;2024-03-08T04:51:15;17.50;;;12.33;;
2622;SDS011;1321;48.690;9.022;2024-03-08T04:53:43;17.70;;;13.10;;
2622;SDS011;1321;48.690;9.022;2024-03-08T04:56:11;15.17;;;12.07;;
2622;SDS011;1321;48.690;9.022;2024-03-08T04:58:41;17.57;;;12.20;;
2622;SDS011;1321;48.690;9.022;2024-03-08T05:01:09;16.53;;;13.00;;
2622;SDS011;1321;48.690;9.022;2024-03-08T05:03:38;17.50;;;11.90;;
2622;SDS011;1321;48.690;9.022;2024-03-08T05:06:06;23.33;;;16.47;;
2622;SDS011;1321;48.690;9.022;2024-03-08T05:08:35;16.43;;;12.87;;
2622;SDS011;1321;48.690;9.022;2024-03-08T05:11:03;15.90;;;12.80;;
2622;SDS011;1321;48.690;9.022;2024-03-08T05:13:33;17.75;;;12.90;;
2622;SDS011;1321;48.690;9.022;2024-03-08T05:16:03;17.90;;;12.45;;
2622;SDS011;1321;48.690;9.022;2024-03-08T05:18:34;19.30;;;13.77;;
2622;SDS011;1321;48.690;9.022;2024-03-08T05:21:02;15.80;;;12.40;;
2622;SDS011;1321;48.690;9.022;2024-03-08T05:23:31;16.83;;;13.03;;
2622;SDS011;1321;48.690;9.022;2024-03-08T05:25:59;22.33;;;14.93;;
2622;SDS011;1321;48.690;9.022;2024-03-08T05:28:27;19.00;;;13.07;;
2622;SDS011;1321;48.690;9.022;2024-03-08T05:30:55;21.30;;;14.73;;
2622;SDS011;1321;48.690;9.022;2024-03-08T05:33:25;17.42;;;14.32;;
2622;SDS011;1321;48.690;9.022;2024-03-08T05:35:53;16.30;;;12.48;;
2622;SDS011;1321;48.690;9.022;2024-03-08T05:38:22;17.40;;;13.90;;
2622;SDS011;1321;48.690;9.022;2024-03-08T05:40:51;18.58;;;12.88;;
2622;SDS011;1321;48.690;9.022;2024-03-08T05:43:19;20.23;;;13.40;;
2622;SDS011;1321;48.690;9.022;2024-03-08T05:45:47;18.50;;;13.48;;
2622;SDS011;1321;48.690;9.022;2024-03-08T05:48:15;18.10;;;12.70;;
2622;SDS011;1321;48.690;9.022;2024-03-08T05:50:46;18.77;;;14.10;;
2622;SDS011;1321;48.690;9.022;2024-03-08T05:53:14;20.02;;;13.45;;
2622;SDS011;1321;48.690;9.022;2024-03-08T05:55:42;20.10;;;14.40;;
2622;SDS011;1321;48.690;9.022;2024-03-08T05:58:11;17.00;;;12.80;;
2622;SDS011;1321;48.690;9.022;2024-03-08T06:00:39;19.17;;;14.17;;
2622;SDS011;1321;48.690;9.022;2024-03-08T06:03:07;19.33;;;14.15;;
2622;SDS011;1321;48.690;9.022;2024-03-08T06:05:35;17.00;;;12.95;;
2622;SDS011;1321;48.690;9.022;2024-03-08T06:08:05;17.40;;;12.85;;
2622;SDS011;1321;48.690;9.022;2024-03-08T06:10:34;15.85;;;12.80;;
2622;SDS011;1321;48.690;9.022;2024-03-08T06:13:02;15.68;;;12.40;;
2622;SDS011;1321;48.690;9.022;2024-03-08T06:15:30;15.63;;;11.13;;
2622;SDS011;1321;48.690;9.022;2024-03-08T06:17:58;17.92;;;13.82;;
2622;SDS011;1321;48.690;9.022;2024-03-08T06:20:27;16.77;;;13.48;;
2622;SDS011;1321;48.690;9.022;2024-03-08T06:22:55;21.33;;;15.30;;
2622;SDS011;1321;48.690;9.022;2024-03-08T06:25:25;19.98;;;14.32;;
2622;SDS011;1321;48.690;9.022;2024-03-08T06:27:53;15.38;;;12.10;;
2622;SDS011;1321;48.690;9.022;2024-03-08T06:30:21;16.88;;;12.90;;
2622;SDS011;1321;48.690;9.022;2024-03-08T06:32:49;16.60;;;12.50;;
2622;SDS011;1321;48.690;9.022;2024-03-08T06:35:18;23.70;;;14.50;;
2622;SDS011;1321;48.690;9.022;2024-03-08T06:37:46;18.77;;;13.47;;
2622;SDS011;1321;48.690;9.022;2024-03-08T06:40:14;17.70;;;13.13;;
2622;SDS011;1321;48.690;9.022;2024-03-08T06:42:44;20.70;;;13.75;;
2622;SDS011;1321;48.690;9.022;2024-03-08T06:45:13;16.77;;;13.03;;
2622;SDS011;1321;48.690;9.022;2024-03-08T06:47:45;22.30;;;14.80;;
2622;SDS011;1321;48.690;9.022;2024-03-08T06:50:14;17.60;;;13.17;;
2622;SDS011;1321;48.690;9.022;2024-03-08T06:52:42;21.17;;;14.03;;
2622;SDS011;1321;48.690;9.022;2024-03-08T06:55:14;20.83;;;13.70;;
2622;SDS011;1321;48.690;9.022;2024-03-08T06:57:45;17.30;;;13.13;;
2622;SDS011;1321;48.690;9.022;2024-03-08T07:00:13;17.77;;;13.63;;
2622;SDS011;1321;48.690;9.022;2024-03-08T07:02:45;15.63;;;12.63;;
2622;SDS011;1321;48.690;9.022;2024-03-08T07:05:15;20.23;;;13.70;;
2622;SDS011;1321;48.690;9.022;2024-03-08T07:07:43;20.77;;;13.77;;
2622;SDS011;1321;48.690;9.022;2024-03-08T07:10:11;21.20;;;14.27;;
2622;SDS011;1321;48.690;9.022;2024-03-08T07:12:41;20.70;;;14.63;;
2622;SDS011;1321;48.690;9.022;2024-03-08T07:15:11;19.40;;;13.50;;
2622;SDS011;1321;48.690;9.022;2024-03-08T07:17:41;15.60;;;12.90;;
2622;SDS011;1321;48.690;9.022;2024-03-08T07:20:11;18.90;;;13.90;;
2622;SDS011;1321;48.690;9.022;2024-03-08T07:22:41;20.17;;;14.50;;
2622;SDS011;1321;48.690;9.022;2024-03-08T07:25:14;18.30;;;13.27;;
2622;SDS011;1321;48.690;9.022;2024-03-08T07:27:47;20.77;;;14.03;;
2622;SDS011;1321;48.690;9.022;2024-03-08T07:30:17;18.93;;;13.37;;
2622;SDS011;1321;48.690;9.022;2024-03-08T07:32:59;18.63;;;13.87;;
2622;SDS011;1321;48.690;9.022;2024-03-08T07:35:29;20.83;;;13.80;;
2622;SDS011;1321;48.690;9.022;2024-03-08T07:37:57;18.27;;;13.40;;
2622;SDS011;1321;48.690;9.022;2024-03-08T07:40:26;18.63;;;14.10;;
2622;SDS011;1321;48.690;9.022;2024-03-08T07:42:54;15.43;;;12.07;;
2622;SDS011;1321;48.690;9.022;2024-03-08T07:45:27;17.60;;;13.70;;
2622;SDS011;1321;48.690;9.022;2024-03-08T07:47:57;15.07;;;12.20;;
2622;SDS011;1321;48.690;9.022;2024-03-08T07:50:25;16.30;;;12.30;;
2622;SDS011;1321;48.690;9.022;2024-03-08T07:52:53;19.50;;;13.07;;
2622;SDS011;1321;48.690;9.022;2024-03-08T07:55:21;17.37;;;13.27;;
2622;SDS011;1321;48.690;9.022;2024-03-08T07:57:51;17.57;;;12.13;;
2622;SDS011;1321;48.690;9.022;2024-03-08T08:00:19;16.70;;;12.90;;
2622;SDS011;1321;48.690;9.022;2024-03-08T08:02:49;17.53;;;13.60;;
2622;SDS011;1321;48.690;9.022;2024-03-08T08:05:17;16.57;;;11.97;;
2622;SDS011;1321;48.690;9.022;2024-03-08T08:07:46;19.97;;;13.97;;
2622;SDS011;1321;48.690;9.022;2024-03-08T08:10:17;18.43;;;12.60;;
2622;SDS011;1321;48.690;9.022;2024-03-08T08:12:48;17.03;;;11.93;;
2622;SDS011;1321;48.690;9.022;2024-03-08T08:15:16;15.47;;;12.47;;
2622;SDS011;1321;48.690;9.022;2024-03-08T08:17:45;17.10;;;12.57;;
2622;SDS011;1321;48.690;9.022;2024-03-08T08:20:15;14.23;;;12.00;;
2622;SDS011;1321;48.690;9.022;2024-03-08T08:22:44;17.60;;;13.03;;
2622;SDS011;1321;48.690;9.022;2024-03-08T08:25:14;17.13;;;13.63;;
2622;SDS011;1321;48.690;9.022;2024-03-08T08:27:46;18.70;;;13.20;;
2622;SDS011;1321;48.690;9.022;2024-03-08T08:30:15;18.13;;;13.20;;
2622;SDS011;1321;48.690;9.022;2024-03-08T08:32:43;16.27;;;13.13;;
2622;SDS011;1321;48.690;9.022;2024-03-08T08:35:15;20.50;;;14.00;;
2622;SDS011;1321;48.690;9.022;2024-03-08T08:37:45;15.37;;;11.83;;
2622;SDS011;1321;48.690;9.022;2024-03-08T08:40:13;16.50;;;12.27;;
2622;SDS011;1321;48.690;9.022;2024-03-08T08:42:44;17.40;;;12.80;;
2622;SDS011;1321;48.690;9.022;2024-03-08T08:45:15;19.80;;;13.83;;
2622;SDS011;1321;48.690;9.022;2024-03-08T08:47:50;14.93;;;11.70;;
2622;SDS011;1321;48.690;9.022;2024-03-08T08:50:20;17.17;;;14.67;;
2622;SDS011;1321;48.690;9.022;2024-03-08T08:52:51;16.50;;;12.50;;
2622;SDS011;1321;48.690;9.022;2024-03-08T08:55:20;16.40;;;12.00;;
2622;SDS011;1321;48.690;9.022;2024-03-08T08:57:52;16.83;;;12.00;;
2622;SDS011;1321;48.690;9.022;2024-03-08T09:00:20;14.40;;;11.30;;
2622;SDS011;1321;48.690;9.022;2024-03-08T09:02:54;16.50;;;12.70;;
2622;SDS011;1321;48.690;9.022;2024-03-08T09:05:26;15.50;;;11.43;;
2622;SDS011;1321;48.690;9.022;2024-03-08T09:07:54;16.97;;;12.00;;
2622;SDS011;1321;48.690;9.022;2024-03-08T09:10:23;18.50;;;12.80;;
2622;SDS011;1321;48.690;9.022;2024-03-08T09:12:56;16.77;;;13.37;;
2622;SDS011;1321;48.690;9.022;2024-03-08T09:15:26;15.53;;;11.50;;
2622;SDS011;1321;48.690;9.022;2024-03-08T09:17:55;15.80;;;12.03;;
2622;SDS011;1321;48.690;9.022;2024-03-08T09:20:24;15.10;;;11.50;;
2622;SDS011;1321;48.690;9.022;2024-03-08T09:22:53;18.40;;;13.47;;
2622;SDS011;1321;48.690;9.022;2024-03-08T09:25:21;16.20;;;11.87;;
2622;SDS011;1321;48.690;9.022;2024-03-08T09:27:50;15.43;;;12.50;;
2622;SDS011;1321;48.690;9.022;2024-03-08T09:30:18;13.40;;;10.67;;
2622;SDS011;1321;48.690;9.022;2024-03-08T09:32:48;17.00;;;11.00;;
2622;SDS011;1321;48.690;9.022;2024-03-08T09:35:18;18.03;;;11.73;;
2622;SDS011;1321;48.690;9.022;2024-03-08T09:37:48;16.60;;;12.27;;
2622;SDS011;1321;48.690;9.022;2024-03-08T09:40:18;17.20;;;11.50;;
2622;SDS011;1321;48.690;9.022;2024-03-08T09:42:47;15.90;;;11.90;;
2622;SDS011;1321;48.690;9.022;2024-03-08T09:45:17;15.63;;;10.77;;
2622;SDS011;1321;48.690;9.022;2024-03-08T09:47:48;12.03;;;10.30;;
2622;SDS011;1321;48.690;9.022;2024-03-08T09:50:16;18.63;;;12.27;;
2622;SDS011;1321;48.690;9.022;2024-03-08T09:52:48;17.20;;;11.50;;
2622;SDS011;1321;48.690;9.022;2024-03-08T09:55:17;11.67;;;10.57;;
2622;SDS011;1321;48.690;9.022;2024-03-08T09:57:49;14.83;;;11.23;;
2622;SDS011;1321;48.690;9.022;2024-03-08T10:00:35;14.20;;;11.70;;
2622;SDS011;1321;48.690;9.022;2024-03-08T10:03:04;14.83;;;11.53;;
2622;SDS011;1321;48.690;9.022;2024-03-08T10:05:32;12.90;;;11.00;;
2622;SDS011;1321;48.690;9.022;2024-03-08T10:08:01;14.03;;;11.40;;
2622;SDS011;1321;48.690;9.022;2024-03-08T10:10:31;15.20;;;11.40;;
2622;SDS011;1321;48.690;9.022;2024-03-08T10:13:01;16.07;;;11.73;;
2622;SDS011;1321;48.690;9.022;2024-03-08T10:15:29;14.80;;;11.93;;
2622;SDS011;1321;48.690;9.022;2024-03-08T10:17:59;17.83;;;11.70;;
2622;SDS011;1321;48.690;9.022;2024-03-08T10:20:28;15.20;;;12.23;;
2622;SDS011;1321;48.690;9.022;2024-03-08T10:22:59;13.57;;;11.40;;
2622;SDS011;1321;48.690;9.022;2024-03-08T10:25:38;16.20;;;12.17;;
2622;SDS011;1321;48.690;9.022;2024-03-08T10:28:06;17.23;;;12.03;;
2622;SDS011;1321;48.690;9.022;2024-03-08T10:30:35;15.50;;;12.30;;
2622;SDS011;1321;48.690;9.022;2024-03-08T10:33:04;13.60;;;10.70;;
2622;SDS011;1321;48.690;9.022;2024-03-08T10:35:33;18.67;;;12.33;;
2622;SDS011;1321;48.690;9.022;2024-03-08T10:38:01;16.33;;;11.83;;
2622;SDS011;1321;48.690;9.022;2024-03-08T10:40:34;16.50;;;12.00;;
2622;SDS011;1321;48.690;9.022;2024-03-08T10:43:08;13.60;;;11.90;;
2622;SDS011;1321;48.690;9.022;2024-03-08T10:45:43;15.73;;;12.23;;
2622;SDS011;1321;48.690;9.022;2024-03-08T10:48:20;17.60;;;11.93;;
2622;SDS011;1321;48.690;9.022;2024-03-08T10:51:02;16.07;;;12.73;;
2622;SDS011;1321;48.690;9.022;2024-03-08T10:53:31;14.37;;;11.17;;
2622;SDS011;1321;48.690;9.022;2024-03-08T10:56:04;19.60;;;11.80;;
2622;SDS011;1321;48.690;9.022;2024-03-08T10:58:35;15.50;;;11.50;;
2622;SDS011;1321;48.690;9.022;2024-03-08T11:01:05;17.73;;;12.98;;
2622;SDS011;1321;48.690;9.022;2024-03-08T11:03:46;16.93;;;11.17;;
2622;SDS011;1321;48.690;9.022;2024-03-08T11:06:21;13.63;;;11.50;;
2622;SDS011;1321;48.690;9.022;2024-03-08T11:08:56;13.90;;;11.30;;
2622;SDS011;1321;48.690;9.022;2024-03-08T11:11:25;13.93;;;11.93;;
2622;SDS011;1321;48.690;9.022;2024-03-08T11:14:01;14.00;;;11.27;;
2622;SDS011;1321;48.690;9.022;2024-03-08T11:16:38;14.90;;;12.37;;
2622;SDS011;1321;48.690;9.022;2024-03-08T11:19:25;15.00;;;11.33;;
2622;SDS011;1321;48.690;9.022;2024-03-08T11:21:58;14.53;;;11.93;;
2622;SDS011;1321;48.690;9.022;2024-03-08T11:24:27;15.23;;;11.00;;
2622;SDS011;1321;48.690;9.022;2024-03-08T11:27:04;15.83;;;11.07;;
2622;SDS011;1321;48.690;9.022;2024-03-08T11:29:35;15.97;;;11.90;;
2622;SDS011;1321;48.690;9.022;2024-03-08T11:32:09;14.37;;;10.67;;
2622;SDS011;1321;48.690;9.022;2024-03-08T11:34:39;14.73;;;11.40;;
2622;SDS011;1321;48.690;9.022;2024-03-08T11:37:12;12.33;;;11.13;;
2622;SDS011;1321;48.690;9.022;2024-03-08T11:39:46;13.17;;;10.43;;
2622;SDS011;1321;48.690;9.022;2024-03-08T11:42:15;14.57;;;11.33;;
2622;SDS011;1321;48.690;9.022;2024-03-08T11:44:45;15.37;;;11.70;;
2622;SDS011;1321;48.690;9.022;2024-03-08T11:47:15;15.63;;;11.97;;
2622;SDS011;1321;48.690;9.022;2024-03-08T11:49:43;13.50;;;10.97;;
2622;SDS011;1321;48.690;9.022;2024-03-08T11:52:14;13.13;;;10.73;;
2622;SDS011;1321;48.690;9.022;2024-03-08T11:54:47;14.30;;;11.97;;
2622;SDS011;1321;48.690;9.022;2024-03-08T11:57:20;13.80;;;10.40;;
2622;SDS011;1321;48.690;9.022;2024-03-08T11:59:51;16.27;;;11.77;;
2622;SDS011;1321;48.690;9.022;2024-03-08T12:02:23;12.50;;;9.97;;
2622;SDS011;1321;48.690;9.022;2024-03-08T12:04:55;14.47;;;11.23;;
2622;SDS011;1321;48.690;9.022;2024-03-08T12:07:26;13.23;;;10.60;;
2622;SDS011;1321;48.690;9.022;2024-03-08T12:10:14;14.77;;;11.57;;
2622;SDS011;1321;48.690;9.022;2024-03-08T12:12:44;14.60;;;10.20;;
2622;SDS011;1321;48.690;9.022;2024-03-08T12:15:16;14.60;;;11.50;;
2622;SDS011;1321;48.690;9.022;2024-03-08T12:17:46;14.67;;;11.60;;
2622;SDS011;1321;48.690;9.022;2024-03-08T12:20:16;16.20;;;11.83;;
2622;SDS011;1321;48.690;9.022;2024-03-08T12:22:48;12.97;;;10.83;;
2622;SDS011;1321;48.690;9.022;2024-03-08T12:25:19;15.30;;;10.83;;
2622;SDS011;1321;48.690;9.022;2024-03-08T12:27:48;12.53;;;10.97;;
2622;SDS011;1321;48.690;9.022;2024-03-08T12:30:21;13.90;;;12.40;;
2622;SDS011;1321;48.690;9.022;2024-03-08T12:32:54;12.63;;;10.20;;
2622;SDS011;1321;48.690;9.022;2024-03-08T12:35:25;13.03;;;11.13;;
2622;SDS011;1321;48.690;9.022;2024-03-08T12:37:54;12.67;;;11.20;;
2622;SDS011;1321;48.690;9.022;2024-03-08T12:40:27;14.73;;;11.60;;
2622;SDS011;1321;48.690;9.022;2024-03-08T12:42:58;13.53;;;11.37;;
2622;SDS011;1321;48.690;9.022;2024-03-08T12:45:28;14.77;;;11.47;;
2622;SDS011;1321;48.690;9.022;2024-03-08T12:47:56;14.30;;;11.50;;
2622;SDS011;1321;48.690;9.022;2024-03-08T12:50:25;13.13;;;11.60;;
2622;SDS011;1321;48.690;9.022;2024-03-08T12:52:53;15.37;;;11.33;;
2622;SDS011;1321;48.690;9.022;2024-03-08T12:55:22;13.07;;;11.00;;
2622;SDS011;1321;48.690;9.022;2024-03-08T12:57:50;13.80;;;11.00;;
2622;SDS011;1321;48.690;9.022;2024-03-08T13:00:19;14.57;;;11.50;;
2622;SDS011;1321;48.690;9.022;2024-03-08T13:02:51;16.53;;;11.80;;
2622;SDS011;1321;48.690;9.022;2024-03-08T13:05:19;13.57;;;11.50;;
2622;SDS011;1321;48.690;9.022;2024-03-08T13:07:48;13.03;;;11.23;;
2622;SDS011;1321;48.690;9.022;2024-03-08T13:10:18;14.20;;;12.07;;
2622;SDS011;1321;48.690;9.022;2024-03-08T13:12:47;12.53;;;11.03;;
2622;SDS011;1321;48.690;9.022;2024-03-08T13:15:19;14.67;;;12.80;;
2622;SDS011;1321;48.690;9.022;2024-03-08T13:17:48;16.10;;;12.63;;
2622;SDS011;1321;48.690;9.022;2024-03-08T13:20:17;15.73;;;13.00;;
2622;SDS011;1321;48.690;9.022;2024-03-08T13:22:56;15.37;;;13.23;;
2622;SDS011;1321;48.690;9.022;2024-03-08T13:25:28;20.00;;;13.00;;
2622;SDS011;1321;48.690;9.022;2024-03-08T13:27:56;18.37;;;12.57;;
2622;SDS011;1321;48.690;9.022;2024-03-08T13:30:27;18.40;;;12.70;;
2622;SDS011;1321;48.690;9.022;2024-03-08T13:32:57;15.53;;;13.47;;
2622;SDS011;1321;48.690;9.022;2024-03-08T13:35:27;17.30;;;13.67;;
2622;SDS011;1321;48.690;9.022;2024-03-08T13:37:56;15.77;;;13.43;;
2622;SDS011;1321;48.690;9.022;2024-03-08T13:40:25;14.80;;;11.40;;
2622;SDS011;1321;48.690;9.022;2024-03-08T13:42:53;18.10;;;12.80;;
2622;SDS011;1321;48.690;9.022;2024-03-08T13:45:21;16.27;;;12.90;;
2622;SDS011;1321;48.690;9.022;2024-03-08T13:47:51;17.17;;;13.10;;
2622;SDS011;1321;48.690;9.022;2024-03-08T13:50:21;15.27;;;12.27;;
2622;SDS011;1321;48.690;9.022;2024-03-08T13:52:51;15.70;;;12.80;;
2622;SDS011;1321;48.690;9.022;2024-03-08T13:55:22;14.93;;;11.43;;
2622;SDS011;1321;48.690;9.022;2024-03-08T13:57:52;16.40;;;12.70;;
2622;SDS011;1321;48.690;9.022;2024-03-08T14:00:20;17.90;;;12.47;;
2622;SDS011;1321;48.690;9.022;2024-03-08T14:02:51;16.93;;;13.60;;
2622;SDS011;1321;48.690;9.022;2024-03-08T14:05:20;15.73;;;12.47;;
2622;SDS011;1321;48.690;9.022;2024-03-08T14:07:48;18.23;;;14.07;;
2622;SDS011;1321;48.690;9.022;2024-03-08T14:10:18;14.77;;;11.80;;
2622;SDS011;1321;48.690;9.022;2024-03-08T14:12:49;18.33;;;13.50;;
2622;SDS011;1321;48.690;9.022;2024-03-08T14:15:17;18.77;;;13.00;;
2622;SDS011;1321;48.690;9.022;2024-03-08T14:17:52;17.43;;;12.37;;
2622;SDS011;1321;48.690;9.022;2024-03-08T14:20:20;15.23;;;11.60;;
2622;SDS011;1321;48.690;9.022;2024-03-08T14:22:52;19.40;;;14.37;;
2622;SDS011;1321;48.690;9.022;2024-03-08T14:25:23;15.83;;;13.80;;
2622;SDS011;1321;48.690;9.022;2024-03-08T14:27:53;18.40;;;13.10;;
2622;SDS011;1321;48.690;9.022;2024-03-08T14:30:25;15.73;;;11.93;;
2622;SDS011;1321;48.690;9.022;2024-03-08T14:33:04;17.00;;;13.17;;
2622;SDS011;1321;48.690;9.022;2024-03-08T14:35:36;16.40;;;12.67;;
2622;SDS011;1321;48.690;9.022;2024-03-08T14:38:04;13.17;;;11.40;;
2622;SDS011;1321;48.690;9.022;2024-03-08T14:40:36;21.30;;;14.80;;
2622;SDS011;1321;48.690;9.022;2024-03-08T14:43:05;19.20;;;12.90;;
2622;SDS011;1321;48.690;9.022;2024-03-08T14:45:33;16.50;;;12.33;;
2622;SDS011;1321;48.690;9.022;2024-03-08T14:48:03;16.70;;;12.93;;
2622;SDS011;1321;48.690;9.022;2024-03-08T14:50:32;15.10;;;12.47;;
2622;SDS011;1321;48.690;9.022;2024-03-08T14:53:03;15.10;;;12.87;;
2622;SDS011;1321;48.690;9.022;2024-03-08T14:55:33;15.53;;;12.07;;
2622;SDS011;1321;48.690;9.022;2024-03-08T14:58:03;15.77;;;12.73;;
2622;SDS011;1321;48.690;9.022;2024-03-08T15:00:31;20.40;;;15.03;;
2622;SDS011;1321;48.690;9.022;2024-03-08T15:03:01;16.40;;;12.73;;